createdAt,value
2023-03-28T00:02:05.253Z,1.80
2023-03-28T00:04:53.641Z,2.25
2023-03-28T00:07:42.537Z,1.30
2023-03-28T00:10:30.955Z,0.90
2023-03-28T00:13:21.371Z,0.88
2023-03-28T00:16:12.967Z,0.70
2023-03-28T00:19:05.875Z,1.00
2023-03-28T00:21:54.878Z,1.08
2023-03-28T00:24:44.428Z,0.77
2023-03-28T00:27:33.488Z,1.58
2023-03-28T00:30:21.958Z,1.13
2023-03-28T00:33:10.421Z,0.88
2023-03-28T00:36:00.771Z,0.90
2023-03-28T00:38:49.827Z,0.80
2023-03-28T00:41:41.622Z,1.35
2023-03-28T00:44:47.719Z,1.93
2023-03-28T00:47:41.891Z,1.40
2023-03-28T00:50:36.608Z,1.50
2023-03-28T00:53:27.482Z,0.90
2023-03-28T00:56:18.832Z,2.78
2023-03-28T00:59:10.775Z,2.10
2023-03-28T01:01:59.511Z,2.28
2023-03-28T01:04:57.741Z,1.00
2023-03-28T01:07:52.521Z,1.52
2023-03-28T01:10:42.631Z,0.60
2023-03-28T01:13:34.867Z,0.70
2023-03-28T01:16:24.202Z,0.88
2023-03-28T01:19:26.764Z,0.70
2023-03-28T01:22:38.173Z,1.40
2023-03-28T01:26:06.577Z,0.75
2023-03-28T01:29:40.541Z,0.90
2023-03-28T01:33:04.979Z,1.27
2023-03-28T01:36:34.380Z,0.63
2023-03-28T01:39:39.505Z,2.53
2023-03-28T01:42:33.417Z,2.65
2023-03-28T01:45:29.829Z,1.90
2023-03-28T01:48:26.044Z,1.60
2023-03-28T01:51:24.744Z,1.75
2023-03-28T01:54:21.869Z,1.88
2023-03-28T01:57:15.938Z,1.00
2023-03-28T02:00:12.730Z,1.42
2023-03-28T02:03:06.870Z,1.10
2023-03-28T02:05:58.453Z,1.17
2023-03-28T02:08:49.561Z,1.42
2023-03-28T02:11:40.936Z,1.05
2023-03-28T02:14:36.387Z,2.70
2023-03-28T02:17:29.069Z,3.20
2023-03-28T02:20:20.604Z,1.63
2023-03-28T02:23:12.678Z,1.60
2023-03-28T02:26:01.457Z,1.20
2023-03-28T02:28:54.526Z,2.37
2023-03-28T02:31:42.985Z,1.50
2023-03-28T02:34:32.316Z,1.35
2023-03-28T02:37:32.105Z,0.75
2023-03-28T02:40:35.441Z,0.60
2023-03-28T02:43:48.592Z,1.38
2023-03-28T02:46:48.361Z,1.10
2023-03-28T02:49:50.333Z,1.00
2023-03-28T02:52:51.598Z,3.03
2023-03-28T02:55:46.308Z,2.15
2023-03-28T02:58:40.150Z,2.67
2023-03-28T03:01:29.543Z,1.75
2023-03-28T03:04:19.431Z,1.77
2023-03-28T03:07:09.535Z,1.38
2023-03-28T03:09:58.063Z,1.42
2023-03-28T03:12:47.356Z,1.70
2023-03-28T03:15:35.907Z,1.88
2023-03-28T03:18:24.578Z,2.40
2023-03-28T03:21:14.397Z,0.90
2023-03-28T03:24:03.105Z,1.50
2023-03-28T03:26:51.554Z,1.30
2023-03-28T03:29:40.326Z,1.17
2023-03-28T03:32:29.127Z,1.27
2023-03-28T03:35:17.750Z,3.03
2023-03-28T03:38:07.649Z,1.15
2023-03-28T03:40:56.067Z,0.90
2023-03-28T03:43:47.047Z,0.95
2023-03-28T03:46:35.796Z,1.10
2023-03-28T03:49:24.434Z,1.63
2023-03-28T03:52:13.165Z,1.55
2023-03-28T03:55:03.095Z,1.33
2023-03-28T03:57:51.522Z,1.35
2023-03-28T04:00:40.106Z,1.10
2023-03-28T04:03:28.870Z,1.42
2023-03-28T04:06:17.355Z,1.02
2023-03-28T04:09:06.342Z,1.02
2023-03-28T04:11:56.844Z,1.00
2023-03-28T04:14:45.371Z,1.00
2023-03-28T04:17:35.523Z,1.20
2023-03-28T04:20:24.492Z,1.15
2023-03-28T04:23:12.935Z,1.00
2023-03-28T04:26:02.573Z,1.00
2023-03-28T04:28:52.692Z,1.50
2023-03-28T04:31:41.346Z,3.97
2023-03-28T04:34:30.889Z,2.47
2023-03-28T04:37:19.992Z,1.10
2023-03-28T04:40:11.360Z,1.20
2023-03-28T04:42:59.852Z,2.27
2023-03-28T04:45:49.914Z,1.58
2023-03-28T04:48:38.709Z,3.03
2023-03-28T04:51:28.700Z,1.20
2023-03-28T04:54:17.502Z,1.60
2023-03-28T04:57:06.140Z,1.30
2023-03-28T04:59:54.680Z,1.92
2023-03-28T05:02:44.654Z,0.80
2023-03-28T05:05:33.767Z,1.13
2023-03-28T05:08:24.912Z,0.80
2023-03-28T05:11:13.345Z,1.38
2023-03-28T05:14:01.877Z,2.33
2023-03-28T05:16:50.366Z,1.23
2023-03-28T05:19:40.370Z,1.50
2023-03-28T05:22:28.877Z,2.22
2023-03-28T05:25:17.535Z,2.05
2023-03-28T05:28:06.524Z,1.67
2023-03-28T05:30:54.994Z,3.22
2023-03-28T05:33:43.380Z,2.13
2023-03-28T05:36:33.209Z,1.15
2023-03-28T05:39:21.782Z,1.05
2023-03-28T05:42:10.374Z,1.77
2023-03-28T05:44:58.865Z,1.85
2023-03-28T05:47:47.442Z,4.18
2023-03-28T05:50:36.418Z,1.00
2023-03-28T05:53:26.573Z,2.28
2023-03-28T05:56:15.035Z,1.30
2023-03-28T05:59:03.678Z,4.40
2023-03-28T06:01:52.674Z,1.75
2023-03-28T06:04:41.248Z,2.42
2023-03-28T06:07:41.302Z,2.00
2023-03-28T06:10:32.285Z,3.10
2023-03-28T06:13:20.734Z,3.25
2023-03-28T06:16:09.688Z,4.18
2023-03-28T06:19:10.367Z,1.83
2023-03-28T06:21:59.236Z,3.50
2023-03-28T06:24:47.653Z,4.30
2023-03-28T06:27:37.494Z,2.15
2023-03-28T06:30:26.005Z,4.70
2023-03-28T06:33:14.453Z,4.28
2023-03-28T06:36:03.310Z,3.15
2023-03-28T06:38:53.451Z,2.88
2023-03-28T06:41:42.021Z,5.65
2023-03-28T06:44:32.088Z,7.43
2023-03-28T06:47:20.653Z,4.78
2023-03-28T06:50:10.152Z,2.65
2023-03-28T06:52:59.075Z,2.53
2023-03-28T06:55:47.535Z,2.85
2023-03-28T06:58:35.957Z,3.28
2023-03-28T07:01:25.873Z,3.28
2023-03-28T07:04:14.418Z,2.10
2023-03-28T07:07:02.862Z,1.45
2023-03-28T07:09:52.773Z,2.25
2023-03-28T07:12:41.269Z,0.80
2023-03-28T07:15:29.779Z,2.15
2023-03-28T07:18:19.729Z,4.75
2023-03-28T07:21:09.555Z,1.10
2023-03-28T07:23:58.231Z,1.30
2023-03-28T07:26:46.659Z,1.08
2023-03-28T07:29:35.113Z,0.80
2023-03-28T07:32:23.671Z,1.43
2023-03-28T07:35:13.656Z,1.45
2023-03-28T07:38:02.219Z,2.50
2023-03-28T07:40:50.778Z,0.70
2023-03-28T07:43:40.146Z,1.27
2023-03-28T07:46:29.547Z,0.90
2023-03-28T07:49:19.977Z,1.92
2023-03-28T07:52:09.917Z,0.50
2023-03-28T07:54:58.372Z,0.97
2023-03-28T07:57:47.018Z,1.10
2023-03-28T08:00:35.586Z,0.88
2023-03-28T08:03:24.420Z,2.00
2023-03-28T08:06:30.898Z,1.07
2023-03-28T08:09:21.736Z,1.55
2023-03-28T08:12:10.230Z,1.00
2023-03-28T08:14:58.792Z,1.30
2023-03-28T08:17:47.553Z,1.83
2023-03-28T08:20:36.066Z,1.15
2023-03-28T08:23:24.561Z,1.63
2023-03-28T08:26:14.842Z,1.08
2023-03-28T08:29:03.573Z,2.15
2023-03-28T08:31:52.073Z,2.13
2023-03-28T08:34:40.619Z,1.83
2023-03-28T08:37:29.273Z,1.23
2023-03-28T08:40:21.184Z,0.70
2023-03-28T08:43:38.096Z,1.38
2023-03-28T08:46:29.496Z,1.40
2023-03-28T08:49:19.294Z,1.85
2023-03-28T08:52:09.131Z,1.80
2023-03-28T08:55:01.528Z,1.50
2023-03-28T08:57:53.932Z,2.30
2023-03-28T09:00:43.798Z,0.85
2023-03-28T09:03:34.675Z,1.02
2023-03-28T09:06:29.564Z,1.17
2023-03-28T09:09:34.188Z,0.82
2023-03-28T09:12:35.433Z,1.13
2023-03-28T09:15:32.840Z,3.75
2023-03-28T09:18:44.096Z,0.80
2023-03-28T09:21:39.384Z,1.67
2023-03-28T09:24:44.862Z,0.70
2023-03-28T09:27:37.700Z,1.85
2023-03-28T09:30:32.468Z,1.27
2023-03-28T09:33:28.941Z,1.00
2023-03-28T09:36:25.950Z,1.33
2023-03-28T09:39:27.026Z,1.20
2023-03-28T09:42:20.575Z,0.95
2023-03-28T09:45:18.639Z,1.00
2023-03-28T09:48:14.229Z,1.30
2023-03-28T09:51:03.504Z,1.20
2023-03-28T09:53:53.267Z,1.80
2023-03-28T09:56:44.812Z,1.40
2023-03-28T09:59:35.095Z,2.60
2023-03-28T10:02:29.335Z,1.00
2023-03-28T10:05:36.822Z,1.17
2023-03-28T10:08:28.114Z,0.93
2023-03-28T10:11:19.387Z,1.08
2023-03-28T10:14:31.628Z,0.82
2023-03-28T10:17:28.673Z,1.65
2023-03-28T10:20:21.540Z,0.80
2023-03-28T10:23:14.248Z,1.20
2023-03-28T10:26:04.846Z,0.80
2023-03-28T10:28:57.556Z,0.60
2023-03-28T10:31:50.978Z,0.63
2023-03-28T10:34:39.549Z,1.50
2023-03-28T10:37:29.611Z,2.83
2023-03-28T10:40:27.550Z,0.68
2023-03-28T10:43:16.823Z,0.93
2023-03-28T10:46:14.217Z,0.57
2023-03-28T10:49:05.850Z,1.38
2023-03-28T10:51:54.385Z,1.70
2023-03-28T10:54:57.674Z,1.67
2023-03-28T10:57:55.146Z,0.90
2023-03-28T11:00:45.934Z,0.80
2023-03-28T11:03:47.548Z,0.70
2023-03-28T11:06:40.399Z,0.70
2023-03-28T11:09:33.664Z,1.40
2023-03-28T11:12:43.847Z,0.80
2023-03-28T11:15:50.160Z,0.80
2023-03-28T11:18:53.740Z,0.50
2023-03-28T11:21:52.261Z,1.47
2023-03-28T11:24:47.524Z,0.80
2023-03-28T11:27:41.843Z,1.92
2023-03-28T11:30:33.904Z,1.90
2023-03-28T11:33:29.581Z,3.30
2023-03-28T11:36:24.878Z,1.20
2023-03-28T11:39:20.630Z,0.63
2023-03-28T11:42:14.247Z,1.00
2023-03-28T11:45:08.064Z,1.60
2023-03-28T11:48:05.938Z,0.50
2023-03-28T11:51:02.305Z,0.80
2023-03-28T11:53:57.425Z,1.40
2023-03-28T11:56:53.789Z,0.70
2023-03-28T11:59:50.629Z,0.60
2023-03-28T12:02:43.367Z,3.58
2023-03-28T12:05:35.014Z,3.38
2023-03-28T12:08:28.455Z,2.30
2023-03-28T12:11:24.953Z,3.03
2023-03-28T12:14:29.441Z,2.00
2023-03-28T12:17:23.094Z,2.08
2023-03-28T12:20:17.605Z,1.10
2023-03-28T12:23:11.754Z,2.00
2023-03-28T12:26:05.136Z,2.10
2023-03-28T12:28:58.871Z,3.33
2023-03-28T12:31:52.206Z,1.08
2023-03-28T12:34:44.949Z,1.65
2023-03-28T12:37:39.781Z,1.90
2023-03-28T12:40:38.169Z,1.23
2023-03-28T12:43:31.621Z,1.13
2023-03-28T12:46:24.318Z,1.23
2023-03-28T12:49:17.722Z,0.70
2023-03-28T12:52:08.487Z,1.08
2023-03-28T12:55:01.720Z,1.40
2023-03-28T12:57:50.647Z,0.85
2023-03-28T13:00:48.140Z,1.45
2023-03-28T13:03:46.954Z,1.10
2023-03-28T13:06:43.708Z,1.77
2023-03-28T13:09:49.640Z,0.50
2023-03-28T13:13:00.154Z,3.35
2023-03-28T13:16:02.969Z,1.60
2023-03-28T13:19:06.180Z,0.80
2023-03-28T13:21:57.712Z,3.33
2023-03-28T13:24:46.190Z,0.77
2023-03-28T13:27:36.039Z,1.45
2023-03-28T13:30:26.572Z,0.90
2023-03-28T13:33:22.184Z,0.93
2023-03-28T13:36:26.030Z,0.90
2023-03-28T13:39:24.208Z,0.90
2023-03-28T13:42:29.267Z,2.20
2023-03-28T13:45:25.554Z,2.60
2023-03-28T13:48:14.615Z,0.80
2023-03-28T13:51:07.507Z,0.70
2023-03-28T13:53:57.540Z,1.30
2023-03-28T13:56:47.923Z,1.55
2023-03-28T13:59:38.826Z,0.93
2023-03-28T14:02:38.159Z,2.30
2023-03-28T14:05:28.069Z,0.80
2023-03-28T14:08:25.430Z,0.55
2023-03-28T14:11:18.015Z,0.50
2023-03-28T14:14:11.016Z,0.70
2023-03-28T14:17:02.653Z,0.93
2023-03-28T14:19:53.852Z,0.65
2023-03-28T14:22:56.898Z,0.60
2023-03-28T14:25:49.834Z,0.60
2023-03-28T14:28:41.978Z,0.90
2023-03-28T14:31:33.153Z,0.50
2023-03-28T14:34:25.433Z,0.50
2023-03-28T14:37:18.426Z,0.93
2023-03-28T14:40:19.707Z,0.80
2023-03-28T14:43:19.769Z,0.73
2023-03-28T14:46:11.577Z,1.20
2023-03-28T14:49:02.996Z,1.20
2023-03-28T14:51:56.341Z,0.60
2023-03-28T14:54:48.018Z,0.73
2023-03-28T14:57:38.102Z,0.50
2023-03-28T15:00:30.310Z,0.63
2023-03-28T15:03:24.124Z,0.70
2023-03-28T15:06:16.485Z,0.70
2023-03-28T15:09:12.344Z,0.70
2023-03-28T15:12:05.424Z,0.75
2023-03-28T15:14:54.597Z,0.90
2023-03-28T15:17:43.526Z,0.77
2023-03-28T15:20:36.190Z,1.10
2023-03-28T15:23:29.093Z,0.88
2023-03-28T15:26:25.570Z,1.00
2023-03-28T15:29:17.142Z,0.70
2023-03-28T15:32:06.886Z,1.03
2023-03-28T15:35:00.799Z,1.73
2023-03-28T15:37:50.893Z,0.73
2023-03-28T15:40:41.833Z,1.25
2023-03-28T15:43:37.775Z,0.65
2023-03-28T15:46:32.112Z,0.82
2023-03-28T15:49:20.885Z,1.00
2023-03-28T15:52:17.516Z,0.75
2023-03-28T15:55:08.203Z,0.52
2023-03-28T15:57:57.935Z,0.90
2023-03-28T16:00:49.077Z,0.68
2023-03-28T16:03:37.665Z,0.82
2023-03-28T16:06:32.134Z,0.90
2023-03-28T16:09:23.109Z,0.77
2023-03-28T16:12:15.889Z,0.47
2023-03-28T16:15:05.563Z,1.48
2023-03-28T16:17:55.772Z,1.47
2023-03-28T16:20:45.379Z,1.92
2023-03-28T16:23:33.904Z,0.73
2023-03-28T16:26:22.421Z,0.70
2023-03-28T16:29:12.488Z,0.70
2023-03-28T16:32:01.018Z,0.75
2023-03-28T16:34:50.701Z,1.55
2023-03-28T16:37:39.415Z,3.87
2023-03-28T16:40:28.253Z,5.75
2023-03-28T16:43:16.933Z,2.50
2023-03-28T16:46:07.154Z,1.30
2023-03-28T16:48:55.980Z,1.58
2023-03-28T16:51:44.461Z,2.42
2023-03-28T16:54:33.054Z,1.70
2023-03-28T16:57:22.057Z,1.30
2023-03-28T17:00:14.096Z,1.20
2023-03-28T17:03:05.255Z,1.27
2023-03-28T17:05:54.870Z,1.17
2023-03-28T17:08:43.372Z,0.80
2023-03-28T17:11:32.905Z,2.05
2023-03-28T17:14:22.077Z,1.77
2023-03-28T17:17:10.723Z,1.30
2023-03-28T17:20:01.395Z,1.43
2023-03-28T17:22:50.543Z,3.55
2023-03-28T17:25:44.922Z,2.38
2023-03-28T17:28:43.379Z,3.78
2023-03-28T17:31:32.456Z,4.20
2023-03-28T17:34:21.454Z,2.13
2023-03-28T17:37:11.543Z,1.70
2023-03-28T17:40:00.244Z,2.67
2023-03-28T17:42:48.688Z,2.42
2023-03-28T17:45:37.318Z,2.05
2023-03-28T17:48:25.947Z,8.50
2023-03-28T17:51:15.357Z,15.45
2023-03-28T17:54:08.273Z,17.00
2023-03-28T17:56:56.718Z,13.40
2023-03-28T17:59:45.152Z,7.80
2023-03-28T18:02:33.712Z,9.73
2023-03-28T18:05:22.398Z,12.05
2023-03-28T18:08:11.139Z,9.57
2023-03-28T18:11:05.455Z,9.95
2023-03-28T18:13:57.108Z,11.23
2023-03-28T18:16:46.127Z,6.68
2023-03-28T18:19:35.654Z,5.18
2023-03-28T18:22:24.135Z,5.03
2023-03-28T18:25:12.553Z,4.78
2023-03-28T18:28:03.226Z,3.70
2023-03-28T18:30:51.813Z,3.25
2023-03-28T18:33:40.534Z,2.50
2023-03-28T18:36:29.071Z,3.17
2023-03-28T18:39:17.809Z,1.90
2023-03-28T18:42:07.523Z,3.80
2023-03-28T18:44:57.919Z,4.03
2023-03-28T18:47:46.611Z,2.72
2023-03-28T18:50:35.063Z,3.83
2023-03-28T18:53:25.155Z,2.83
2023-03-28T18:56:14.377Z,2.35
2023-03-28T18:59:04.069Z,1.92
2023-03-28T19:01:54.103Z,2.97
2023-03-28T19:04:42.711Z,2.10
2023-03-28T19:07:31.185Z,3.22
2023-03-28T19:10:19.775Z,4.57
2023-03-28T19:13:08.264Z,6.37
2023-03-28T19:16:00.585Z,5.88
2023-03-28T19:18:50.601Z,3.65
2023-03-28T19:21:39.012Z,4.00
2023-03-28T19:24:27.406Z,3.70
2023-03-28T19:27:15.932Z,4.55
2023-03-28T19:30:05.672Z,4.90
2023-03-28T19:32:54.215Z,3.45
2023-03-28T19:35:44.075Z,4.05
2023-03-28T19:38:34.913Z,4.65
2023-03-28T19:41:24.972Z,3.33
2023-03-28T19:44:13.498Z,3.27
2023-03-28T19:47:02.141Z,3.40
2023-03-28T19:49:50.685Z,4.40
2023-03-28T19:52:42.520Z,4.18
2023-03-28T19:55:31.010Z,3.83
2023-03-28T19:58:19.467Z,2.22
2023-03-28T20:01:08.163Z,1.17
2023-03-28T20:03:56.700Z,1.93
2023-03-28T20:06:45.295Z,2.10
2023-03-28T20:09:35.758Z,1.30
2023-03-28T20:12:24.229Z,2.05
2023-03-28T20:15:13.003Z,3.05
2023-03-28T20:18:01.885Z,2.72
2023-03-28T20:20:51.934Z,2.58
2023-03-28T20:23:40.688Z,3.83
2023-03-28T20:26:31.737Z,3.05
2023-03-28T20:29:23.047Z,1.75
2023-03-28T20:32:11.540Z,3.13
2023-03-28T20:35:00.185Z,2.60
2023-03-28T20:37:48.706Z,3.22
2023-03-28T20:40:41.096Z,3.78
2023-03-28T20:43:36.797Z,2.77
2023-03-28T20:46:25.303Z,2.65
2023-03-28T20:49:14.203Z,2.50
2023-03-28T20:52:02.703Z,4.28
2023-03-28T20:54:51.842Z,2.50
2023-03-28T20:57:42.404Z,3.77
2023-03-28T21:00:33.736Z,3.67
2023-03-28T21:03:22.325Z,2.97
2023-03-28T21:06:12.860Z,4.10
2023-03-28T21:09:02.818Z,4.40
2023-03-28T21:11:51.274Z,3.78
2023-03-28T21:14:39.697Z,4.30
2023-03-28T21:17:29.620Z,2.10
2023-03-28T21:20:19.104Z,2.55
2023-03-28T21:23:07.619Z,2.63
2023-03-28T21:25:56.410Z,2.08
2023-03-28T21:28:45.424Z,2.42
2023-03-28T21:31:34.057Z,2.80
2023-03-28T21:34:30.512Z,2.08
2023-03-28T21:37:18.927Z,3.47
2023-03-28T21:40:08.767Z,1.70
2023-03-28T21:42:57.267Z,3.47
2023-03-28T21:45:46.381Z,1.58
2023-03-28T21:48:35.147Z,2.05
2023-03-28T21:51:25.832Z,2.47
2023-03-28T21:54:14.261Z,1.33
2023-03-28T21:57:02.722Z,2.05
2023-03-28T21:59:51.243Z,1.95
2023-03-28T22:02:39.722Z,1.42
2023-03-28T22:05:29.957Z,2.25
2023-03-28T22:08:20.328Z,1.83
2023-03-28T22:11:14.659Z,1.75
2023-03-28T22:14:04.756Z,2.90
2023-03-28T22:16:53.597Z,2.13
2023-03-28T22:19:42.073Z,2.50
2023-03-28T22:22:30.519Z,1.42
2023-03-28T22:25:22.552Z,1.83
2023-03-28T22:28:12.575Z,1.97
2023-03-28T22:31:01.174Z,1.50
2023-03-28T22:33:49.848Z,2.15
2023-03-28T22:36:38.320Z,3.38
2023-03-28T22:39:27.120Z,1.88
2023-03-28T22:42:17.564Z,2.33
2023-03-28T22:45:06.852Z,1.77
2023-03-28T22:47:58.501Z,2.55
2023-03-28T22:50:47.723Z,2.45
2023-03-28T22:53:37.239Z,2.20
2023-03-28T22:56:25.696Z,2.88
2023-03-28T22:59:15.567Z,1.90
2023-03-28T23:02:04.174Z,2.60
2023-03-28T23:04:54.272Z,1.60
2023-03-28T23:07:42.899Z,1.83
2023-03-28T23:10:32.008Z,1.58
2023-03-28T23:13:20.509Z,2.90
2023-03-28T23:16:12.019Z,2.50
2023-03-28T23:19:00.785Z,2.60
2023-03-28T23:21:50.265Z,3.53
2023-03-28T23:24:38.924Z,2.20
2023-03-28T23:27:27.341Z,1.67
2023-03-28T23:30:17.201Z,2.08
2023-03-28T23:33:07.449Z,1.83
2023-03-28T23:35:56.271Z,1.75
2023-03-28T23:38:44.759Z,2.28
2023-03-28T23:41:33.187Z,1.88
2023-03-28T23:44:21.619Z,1.20
2023-03-28T23:47:12.460Z,2.35
2023-03-28T23:50:02.329Z,1.47
2023-03-28T23:52:50.789Z,1.80
2023-03-28T23:55:40.339Z,1.23
2023-03-28T23:58:28.850Z,2.35
